Time;durP1;ratioP1;P1;durP2;ratioP2;P2;SDS_P1;SDS_P2;PMS_P1;PMS_P2;Temp;Humidity;BMP_temperature;BMP_pressure;BME280_temperature;BME280_humidity;BME280_pressure;Samples;Min_cycle;Max_cycle;Signal;HPM_P1;HPM_P2
2022/03/04 00:02:13;;;;;;;;;;;;;;;4.36;67.70;100290.91;1750922;80;20169;-86
2022/03/04 00:04:39;;;;;;;;;;;;;;;4.37;68.29;100296.50;1748804;80;21127;-91
2022/03/04 00:07:05;;;;;;;;;;;;;;;4.39;68.20;100294.60;1748609;81;20169;-86
2022/03/04 00:09:31;;;;;;;;;;;;;;;4.36;68.57;100289.59;1747830;80;20121;-87
2022/03/04 00:11:57;;;;;;;;;;;;;;;4.22;69.64;100297.14;1751868;81;20185;-85
2022/03/04 00:14:24;;;;;;;;;;;;;;;4.18;69.90;100293.92;1753618;81;20170;-92
2022/03/04 00:16:50;;;;;;;;;;;;;;;4.34;69.72;100287.58;1744388;81;21099;-84
2022/03/04 00:19:17;;;;;;;;;;;;;;;4.19;70.25;100297.36;1749842;80;20304;-86
2022/03/04 00:21:46;;;;;;;;;;;;;;;4.14;70.65;100290.67;1740250;81;20169;-89
2022/03/04 00:24:12;;;;;;;;;;;;;;;4.23;70.41;100289.19;1754518;80;20712;-83
2022/03/04 00:26:38;;;;;;;;;;;;;;;4.09;71.11;100291.97;1730520;80;20165;-87
2022/03/04 00:29:05;;;;;;;;;;;;;;;4.12;71.07;100296.50;1741908;81;21163;-87
2022/03/04 00:31:30;;;;;;;;;;;;;;;4.28;70.68;100294.90;1732816;81;20261;-87
2022/03/04 00:33:56;;;;;;;;;;;;;;;4.16;71.18;100293.17;1725840;81;20134;-89
2022/03/04 00:36:22;;;;;;;;;;;;;;;4.00;71.78;100288.72;1738038;81;20174;-91
2022/03/04 00:38:50;;;;;;;;;;;;;;;4.00;72.04;100290.02;1724002;80;20600;-90
2022/03/04 00:41:17;;;;;;;;;;;;;;;4.14;71.61;100287.23;1734105;81;21086;-91
2022/03/04 00:43:43;;;;;;;;;;;;;;;4.05;72.22;100293.12;1734784;81;20615;-89
2022/03/04 00:46:09;;;;;;;;;;;;;;;3.79;73.38;100290.59;1727775;81;20177;-89
2022/03/04 00:48:34;;;;;;;;;;;;;;;3.78;73.49;100282.41;1730564;81;20175;-90
2022/03/04 00:51:00;;;;;;;;;;;;;;;3.80;73.77;100287.52;1726666;81;20220;-91
2022/03/04 00:53:26;;;;;;;;;;;;;;;3.70;74.30;100289.97;1724227;81;21151;-90
2022/03/04 00:55:51;;;;;;;;;;;;;;;3.66;74.51;100286.72;1726490;81;20146;-89
2022/03/04 00:58:17;;;;;;;;;;;;;;;3.78;74.12;100288.45;1727346;81;20168;-86
2022/03/04 01:00:43;;;;;;;;;;;;;;;3.72;74.53;100290.20;1728432;81;20776;-89
2022/03/04 01:03:08;;;;;;;;;;;;;;;3.65;74.83;100292.90;1726972;81;20142;-89
2022/03/04 01:05:34;;;;;;;;;;;;;;;3.74;74.67;100288.34;1731056;81;20567;-88
2022/03/04 01:07:59;;;;;;;;;;;;;;;3.75;74.93;100293.90;1727207;81;20535;-83
2022/03/04 01:10:25;;;;;;;;;;;;;;;3.78;74.86;100288.94;1729315;80;20143;-87
2022/03/04 01:12:52;;;;;;;;;;;;;;;3.74;75.23;100292.70;1719915;81;20174;-89
2022/03/04 01:15:18;;;;;;;;;;;;;;;3.74;74.95;100290.09;1735802;80;20211;-89
2022/03/04 01:17:43;;;;;;;;;;;;;;;3.80;75.13;100292.27;1733212;81;21707;-87
2022/03/04 01:20:09;;;;;;;;;;;;;;;3.74;75.42;100287.48;1731622;81;20235;-88
2022/03/04 01:22:35;;;;;;;;;;;;;;;3.87;75.07;100288.28;1726952;81;20195;-89
2022/03/04 01:25:00;;;;;;;;;;;;;;;3.88;75.06;100290.41;1730291;81;20737;-89
2022/03/04 01:27:27;;;;;;;;;;;;;;;4.00;74.58;100290.84;1744286;80;20132;-88
2022/03/04 01:29:53;;;;;;;;;;;;;;;3.93;74.81;100290.46;1749672;80;21067;-89
2022/03/04 01:32:18;;;;;;;;;;;;;;;3.92;75.04;100284.86;1751285;81;20208;-88
2022/03/04 01:34:44;;;;;;;;;;;;;;;3.83;75.42;100286.83;1748468;80;20119;-89
2022/03/04 01:37:09;;;;;;;;;;;;;;;3.82;75.48;100285.15;1750632;80;20488;-87
2022/03/04 01:39:35;;;;;;;;;;;;;;;3.82;75.67;100286.94;1745808;81;20133;-87
2022/03/04 01:42:01;;;;;;;;;;;;;;;3.85;75.75;100287.55;1747320;80;21136;-89
2022/03/04 01:44:26;;;;;;;;;;;;;;;4.00;75.09;100291.33;1740862;80;20184;-88
2022/03/04 01:46:52;;;;;;;;;;;;;;;4.06;75.03;100293.02;1748937;81;20739;-88
2022/03/04 01:49:18;;;;;;;;;;;;;;;4.09;74.89;100298.51;1751409;81;20161;-87
2022/03/04 01:51:43;;;;;;;;;;;;;;;4.19;74.37;100295.56;1749406;80;20801;-84
2022/03/04 01:54:09;;;;;;;;;;;;;;;4.28;74.35;100289.67;1757972;80;21122;-81
2022/03/04 01:56:35;;;;;;;;;;;;;;;4.29;74.25;100293.97;1747190;79;20144;-87
2022/03/04 01:59:00;;;;;;;;;;;;;;;4.31;74.18;100292.06;1749218;81;20157;-86
2022/03/04 02:01:26;;;;;;;;;;;;;;;4.26;74.37;100288.96;1745958;81;20171;-83
2022/03/04 02:03:51;;;;;;;;;;;;;;;4.39;73.97;100286.75;1751641;81;20135;-82
2022/03/04 02:06:17;;;;;;;;;;;;;;;4.36;74.08;100291.73;1753856;81;21611;-84
2022/03/04 02:08:42;;;;;;;;;;;;;;;4.45;73.97;100292.84;1754602;81;20173;-89
2022/03/04 02:11:08;;;;;;;;;;;;;;;4.39;74.17;100293.30;1747906;81;20142;-87
2022/03/04 02:13:34;;;;;;;;;;;;;;;4.42;74.13;100289.14;1749006;79;20141;-87
2022/03/04 02:16:00;;;;;;;;;;;;;;;4.48;73.87;100296.54;1749202;81;20141;-88
2022/03/04 02:18:26;;;;;;;;;;;;;;;4.46;74.22;100294.52;1747641;80;21112;-86
2022/03/04 02:20:52;;;;;;;;;;;;;;;4.55;73.85;100291.20;1744691;80;20149;-87
2022/03/04 02:23:17;;;;;;;;;;;;;;;4.51;73.74;100292.39;1748513;80;20228;-86
2022/03/04 02:25:48;;;;;;;;;;;;;;;4.49;74.08;100295.60;1742951;81;20418;-86
2022/03/04 02:28:14;;;;;;;;;;;;;;;4.47;74.03;100293.55;1739225;80;20162;-89
2022/03/04 02:30:39;;;;;;;;;;;;;;;4.39;74.37;100288.06;1730770;81;21955;-88
2022/03/04 02:33:05;;;;;;;;;;;;;;;4.35;74.90;100285.30;1735047;81;20138;-87
2022/03/04 02:35:32;;;;;;;;;;;;;;;4.31;75.19;100293.86;1726702;81;20150;-88
2022/03/04 02:37:58;;;;;;;;;;;;;;;4.17;75.93;100288.33;1729199;81;20354;-87
2022/03/04 02:40:24;;;;;;;;;;;;;;;4.01;76.65;100289.06;1738130;81;20139;-86
2022/03/04 02:42:50;;;;;;;;;;;;;;;3.83;77.64;100292.05;1729185;81;21081;-88
2022/03/04 02:45:16;;;;;;;;;;;;;;;3.71;78.35;100287.70;1741942;81;20142;-84
2022/03/04 02:47:42;;;;;;;;;;;;;;;3.70;78.49;100284.26;1727527;81;20166;-87
2022/03/04 02:50:08;;;;;;;;;;;;;;;3.64;78.62;100291.70;1738748;80;20595;-88
2022/03/04 02:52:34;;;;;;;;;;;;;;;3.78;78.61;100288.94;1732486;81;20251;-88
2022/03/04 02:55:00;;;;;;;;;;;;;;;3.76;78.80;100296.06;1724613;81;20629;-85
2022/03/04 02:57:25;;;;;;;;;;;;;;;3.63;79.75;100287.41;1724930;81;20140;-88
2022/03/04 02:59:51;;;;;;;;;;;;;;;3.59;80.23;100291.55;1725325;81;20158;-88
2022/03/04 03:02:16;;;;;;;;;;;;;;;3.65;80.15;100290.73;1729647;81;20118;-89
2022/03/04 03:04:42;;;;;;;;;;;;;;;3.54;81.00;100293.66;1727957;81;20147;-87
2022/03/04 03:07:08;;;;;;;;;;;;;;;3.55;81.01;100286.16;1730239;81;21994;-89
2022/03/04 03:09:34;;;;;;;;;;;;;;;3.52;81.71;100290.29;1723927;80;20158;-88
2022/03/04 03:12:00;;;;;;;;;;;;;;;3.56;81.93;100285.23;1733889;81;20194;-87
2022/03/04 03:14:26;;;;;;;;;;;;;;;3.64;81.78;100289.09;1731477;81;21218;-86
2022/03/04 03:16:51;;;;;;;;;;;;;;;3.73;81.67;100284.05;1722208;81;20319;-83
2022/03/04 03:19:17;;;;;;;;;;;;;;;3.70;81.74;100286.05;1723463;81;21134;-86
2022/03/04 03:21:42;;;;;;;;;;;;;;;3.77;81.81;100288.56;1724043;81;20710;-87
2022/03/04 03:24:08;;;;;;;;;;;;;;;3.72;82.15;100289.38;1734098;81;20218;-87
2022/03/04 03:26:34;;;;;;;;;;;;;;;3.70;82.40;100288.66;1739038;81;21042;-85
2022/03/04 03:28:59;;;;;;;;;;;;;;;3.86;82.27;100294.44;1757360;81;20117;-88
2022/03/04 03:31:25;;;;;;;;;;;;;;;3.88;82.30;100290.41;1754086;81;21126;-87
2022/03/04 03:33:50;;;;;;;;;;;;;;;3.97;82.31;100292.86;1744809;80;20153;-88
2022/03/04 03:36:16;;;;;;;;;;;;;;;3.89;82.59;100296.84;1747297;81;20495;-84
2022/03/04 03:38:41;;;;;;;;;;;;;;;3.85;82.73;100295.38;1747542;81;20843;-89
2022/03/04 03:41:07;;;;;;;;;;;;;;;4.03;82.19;100297.64;1741520;81;20161;-88
2022/03/04 03:43:33;;;;;;;;;;;;;;;3.98;82.56;100297.12;1738794;81;21145;-88
2022/03/04 03:45:58;;;;;;;;;;;;;;;4.01;82.37;100299.51;1744267;80;20321;-88
2022/03/04 03:48:24;;;;;;;;;;;;;;;4.04;82.39;100301.91;1750503;81;20130;-83
2022/03/04 03:50:49;;;;;;;;;;;;;;;4.07;82.46;100304.30;1750113;81;20163;-86
2022/03/04 03:53:15;;;;;;;;;;;;;;;4.19;81.98;100294.75;1747873;80;20161;-85
2022/03/04 03:55:40;;;;;;;;;;;;;;;4.33;81.47;100298.97;1752674;80;21017;-86
2022/03/04 03:58:06;;;;;;;;;;;;;;;4.31;81.59;100305.14;1751533;80;20825;-85
2022/03/04 04:00:32;;;;;;;;;;;;;;;4.39;81.30;100306.36;1748648;81;20109;-84
2022/03/04 04:02:57;;;;;;;;;;;;;;;4.53;80.77;100307.48;1750704;81;20452;-85
2022/03/04 04:05:23;;;;;;;;;;;;;;;4.57;80.61;100312.86;1746346;80;20274;-85
2022/03/04 04:07:48;;;;;;;;;;;;;;;4.73;79.95;100322.19;1738800;81;21091;-85
2022/03/04 04:10:14;;;;;;;;;;;;;;;4.77;79.66;100313.14;1742008;81;20642;-82
2022/03/04 04:12:39;;;;;;;;;;;;;;;4.86;79.34;100315.07;1749263;81;20159;-87
2022/03/04 04:15:06;;;;;;;;;;;;;;;4.95;79.14;100313.55;1753610;80;20136;-86
2022/03/04 04:17:32;;;;;;;;;;;;;;;5.00;78.96;100309.65;1744163;81;20178;-87
2022/03/04 04:19:57;;;;;;;;;;;;;;;5.06;78.79;100316.67;1753010;81;21137;-86
2022/03/04 04:22:23;;;;;;;;;;;;;;;4.98;79.20;100318.07;1745444;79;20136;-87
2022/03/04 04:24:48;;;;;;;;;;;;;;;5.04;79.12;100312.86;1748043;81;20486;-88
2022/03/04 04:27:14;;;;;;;;;;;;;;;5.17;78.56;100315.37;1760717;80;21344;-85
2022/03/04 04:29:39;;;;;;;;;;;;;;;5.17;78.60;100317.98;1754288;80;20125;-86
2022/03/04 04:32:06;;;;;;;;;;;;;;;5.32;78.39;100318.13;1752532;80;21144;-85
2022/03/04 04:34:31;;;;;;;;;;;;;;;5.31;78.01;100316.93;1753273;80;20104;-88
2022/03/04 04:36:58;;;;;;;;;;;;;;;5.35;77.92;100315.27;1756471;80;20263;-85
2022/03/04 04:39:24;;;;;;;;;;;;;;;5.21;78.39;100315.50;1754720;80;20148;-83
2022/03/04 04:41:49;;;;;;;;;;;;;;;5.24;78.46;100316.58;1749250;80;20156;-86
2022/03/04 04:44:17;;;;;;;;;;;;;;;5.39;77.80;100323.26;1747420;81;21109;-85
2022/03/04 04:46:44;;;;;;;;;;;;;;;5.47;77.82;100314.80;1718972;81;20187;-84
2022/03/04 04:49:12;;;;;;;;;;;;;;;5.46;78.00;100321.48;1740580;81;20203;-85
2022/03/04 04:51:37;;;;;;;;;;;;;;;5.58;77.57;100316.59;1738512;79;20730;-87
2022/03/04 04:54:03;;;;;;;;;;;;;;;5.66;77.19;100318.13;1751331;81;20193;-86
2022/03/04 04:56:29;;;;;;;;;;;;;;;5.70;77.01;100320.02;1748257;81;21218;-88
2022/03/04 04:58:54;;;;;;;;;;;;;;;5.68;77.20;100324.06;1744601;81;20369;-83
2022/03/04 05:01:20;;;;;;;;;;;;;;;5.71;77.04;100321.70;1753252;81;20201;-84
2022/03/04 05:03:46;;;;;;;;;;;;;;;5.66;77.26;100318.61;1743157;81;20153;-85
2022/03/04 05:06:11;;;;;;;;;;;;;;;5.77;76.97;100315.97;1748483;81;20121;-85
2022/03/04 05:08:37;;;;;;;;;;;;;;;5.78;76.87;100324.66;1747241;81;21102;-86
2022/03/04 05:11:02;;;;;;;;;;;;;;;5.96;76.29;100327.14;1742924;81;20113;-84
2022/03/04 05:13:29;;;;;;;;;;;;;;;5.98;75.89;100326.59;1750537;78;20122;-82
2022/03/04 05:15:55;;;;;;;;;;;;;;;5.83;76.31;100321.22;1749252;81;20149;-86
2022/03/04 05:18:20;;;;;;;;;;;;;;;5.89;76.25;100332.53;1739855;81;20233;-87
2022/03/04 05:20:46;;;;;;;;;;;;;;;5.92;76.33;100333.59;1744001;80;21929;-87
2022/03/04 05:23:58;;;;;;;;;;;;;;;5.84;76.65;100337.28;1747313;80;20141;-85
2022/03/04 05:25:39;;;;;;;;;;;;;;;5.86;76.72;100338.02;1745097;80;20162;-87
2022/03/04 05:28:04;;;;;;;;;;;;;;;5.78;77.24;100343.86;1747365;80;20143;-87
2022/03/04 05:30:30;;;;;;;;;;;;;;;5.87;77.00;100343.13;1739876;81;20158;-87
2022/03/04 05:32:56;;;;;;;;;;;;;;;5.85;77.42;100342.89;1743671;81;22006;-87
2022/03/04 05:35:22;;;;;;;;;;;;;;;5.83;77.86;100348.73;1738177;80;20158;-86
2022/03/04 05:37:48;;;;;;;;;;;;;;;5.78;78.23;100354.80;1738471;81;20193;-89
2022/03/04 05:40:13;;;;;;;;;;;;;;;5.70;78.75;100352.77;1735583;80;20194;-88
2022/03/04 05:42:39;;;;;;;;;;;;;;;5.63;79.37;100358.15;1736919;81;20259;-88
2022/03/04 05:45:05;;;;;;;;;;;;;;;5.70;79.18;100359.32;1770886;80;21250;-86
2022/03/04 05:47:31;;;;;;;;;;;;;;;5.60;79.68;100356.59;1733376;81;20171;-86
2022/03/04 05:49:57;;;;;;;;;;;;;;;5.63;79.64;100360.28;1729988;81;20123;-86
2022/03/04 05:52:22;;;;;;;;;;;;;;;5.52;80.50;100365.53;1731052;82;20820;-86
2022/03/04 05:54:48;;;;;;;;;;;;;;;5.36;81.46;100362.77;1733558;82;20155;-86
2022/03/04 05:57:13;;;;;;;;;;;;;;;5.53;80.73;100365.86;1729933;82;21078;-89
2022/03/04 05:59:39;;;;;;;;;;;;;;;5.49;81.20;100365.77;1730947;80;20122;-85
2022/03/04 06:02:05;;;;;;;;;;;;;;;5.53;81.33;100365.41;1738454;80;20577;-88
2022/03/04 06:04:31;;;;;;;;;;;;;;;5.61;81.37;100371.37;1734298;82;20342;-86
2022/03/04 06:06:57;;;;;;;;;;;;;;;5.58;82.01;100368.50;1734070;81;20236;-87
2022/03/04 06:09:27;;;;;;;;;;;;;;;5.62;81.42;100375.63;1733246;81;21984;-90
2022/03/04 06:11:50;;;;;;;;;;;;;;;5.65;81.38;100372.78;1730518;80;20179;-91
2022/03/04 06:14:15;;;;;;;;;;;;;;;5.51;82.53;100383.01;1737011;80;20134;-87
2022/03/04 06:16:41;;;;;;;;;;;;;;;5.45;82.87;100383.97;1730264;81;20154;-86
2022/03/04 06:19:08;;;;;;;;;;;;;;;5.56;82.21;100382.20;1765150;80;20201;-91
2022/03/04 06:21:34;;;;;;;;;;;;;;;5.35;83.93;100383.36;1747549;80;22263;-88
2022/03/04 06:23:59;;;;;;;;;;;;;;;5.50;84.00;100387.05;1740386;81;20193;-83
2022/03/04 06:26:25;;;;;;;;;;;;;;;5.63;83.69;100395.66;1737200;81;20191;-88
2022/03/04 06:28:50;;;;;;;;;;;;;;;5.73;83.32;100390.52;1702306;83;20149;-89
2022/03/04 06:31:16;;;;;;;;;;;;;;;5.77;83.26;100392.45;1696810;82;20162;-90
2022/03/04 06:33:44;;;;;;;;;;;;;;;5.87;82.64;100392.08;1700808;83;21179;-91
2022/03/04 06:36:11;;;;;;;;;;;;;;;5.90;82.19;100403.17;1737551;81;20610;-90
2022/03/04 06:38:39;;;;;;;;;;;;;;;5.91;81.92;100404.00;1688271;83;20506;-89
2022/03/04 06:41:05;;;;;;;;;;;;;;;6.05;81.82;100404.27;1715864;82;20866;-88
2022/03/04 06:43:31;;;;;;;;;;;;;;;6.10;81.48;100408.17;1708428;83;20496;-85
2022/03/04 06:45:56;;;;;;;;;;;;;;;6.16;80.87;100413.91;1700458;83;21161;-87
2022/03/04 06:48:22;;;;;;;;;;;;;;;6.25;80.54;100407.94;1702598;83;20301;-87
2022/03/04 06:50:50;;;;;;;;;;;;;;;6.04;80.62;100419.14;1695829;83;20226;-86
2022/03/04 06:53:15;;;;;;;;;;;;;;;6.06;80.69;100423.80;1700532;83;21090;-86
2022/03/04 06:55:41;;;;;;;;;;;;;;;6.08;80.21;100423.20;1705589;83;20235;-84
2022/03/04 06:58:07;;;;;;;;;;;;;;;5.93;80.50;100417.81;1704853;83;21089;-83
2022/03/04 07:00:32;;;;;;;;;;;;;;;5.96;80.65;100418.88;1700149;82;20133;-84
2022/03/04 07:02:58;;;;;;;;;;;;;;;5.98;80.57;100415.72;1704103;82;20948;-89
2022/03/04 07:05:23;;;;;;;;;;;;;;;5.98;80.55;100415.72;1701075;83;20462;-88
2022/03/04 07:07:49;;;;;;;;;;;;;;;5.95;80.65;100415.92;1699908;83;20117;-89
2022/03/04 07:10:15;;;;;;;;;;;;;;;6.08;80.12;100415.33;1698400;84;21064;-88
2022/03/04 07:12:41;;;;;;;;;;;;;;;6.05;80.15;100419.50;1694452;83;20223;-89
2022/03/04 07:15:07;;;;;;;;;;;;;;;6.10;80.02;100419.97;1700858;83;20775;-86
2022/03/04 07:17:33;;;;;;;;;;;;;;;6.22;79.79;100419.98;1703212;82;20190;-87
2022/03/04 07:19:59;;;;;;;;;;;;;;;6.30;79.38;100425.44;1701463;82;20457;-88
2022/03/04 07:22:24;;;;;;;;;;;;;;;6.28;79.18;100428.67;1701901;82;21091;-83
2022/03/04 07:24:50;;;;;;;;;;;;;;;6.23;79.27;100434.73;1701493;83;20537;-87
2022/03/04 07:27:15;;;;;;;;;;;;;;;6.28;78.95;100432.61;1712665;81;20162;-83
2022/03/04 07:29:41;;;;;;;;;;;;;;;6.23;79.14;100435.59;1746351;80;20126;-83
2022/03/04 07:32:07;;;;;;;;;;;;;;;6.10;79.32;100437.01;1748602;81;20112;-88
2022/03/04 07:34:33;;;;;;;;;;;;;;;6.18;79.18;100443.45;1748341;80;21072;-87
2022/03/04 07:36:58;;;;;;;;;;;;;;;6.09;79.58;100444.54;1740746;80;20132;-82
2022/03/04 07:39:24;;;;;;;;;;;;;;;6.09;79.51;100439.30;1753903;80;20116;-83
2022/03/04 07:41:50;;;;;;;;;;;;;;;6.18;79.37;100446.08;1749569;80;20364;-85
2022/03/04 07:44:16;;;;;;;;;;;;;;;6.26;78.95;100447.61;1750465;80;20164;-83
2022/03/04 07:46:41;;;;;;;;;;;;;;;6.37;78.42;100452.00;1749856;80;20969;-85
2022/03/04 07:49:07;;;;;;;;;;;;;;;6.36;78.48;100447.25;1753633;80;20185;-87
2022/03/04 07:51:33;;;;;;;;;;;;;;;6.31;78.54;100452.03;1747071;80;20104;-85
2022/03/04 07:53:59;;;;;;;;;;;;;;;6.44;78.36;100454.02;1750842;80;20959;-87
2022/03/04 07:56:25;;;;;;;;;;;;;;;6.35;78.61;100456.06;1741244;80;20177;-87
2022/03/04 07:58:50;;;;;;;;;;;;;;;6.23;79.45;100457.88;1686288;82;21062;-85
2022/03/04 08:01:16;;;;;;;;;;;;;;;6.31;79.07;100458.59;1714146;82;20353;-88
2022/03/04 08:03:42;;;;;;;;;;;;;;;6.36;79.03;100464.30;1680769;83;20242;-85
2022/03/04 08:06:08;;;;;;;;;;;;;;;6.44;78.47;100469.77;1683137;83;20175;-90
2022/03/04 08:08:34;;;;;;;;;;;;;;;6.25;79.64;100466.94;1686656;84;20210;-87
2022/03/04 08:11:00;;;;;;;;;;;;;;;6.35;79.55;100462.62;1695158;83;21111;-88
2022/03/04 08:13:26;;;;;;;;;;;;;;;6.44;79.24;100461.89;1692557;83;20234;-87
2022/03/04 08:15:51;;;;;;;;;;;;;;;6.45;79.53;100463.57;1707677;83;20197;-87
2022/03/04 08:18:17;;;;;;;;;;;;;;;6.51;79.21;100469.27;1693845;83;20156;-88
2022/03/04 08:20:42;;;;;;;;;;;;;;;6.59;78.41;100473.45;1695487;83;20149;-88
2022/03/04 08:23:08;;;;;;;;;;;;;;;6.69;77.65;100478.30;1693101;83;21153;-88
2022/03/04 08:25:34;;;;;;;;;;;;;;;6.64;77.80;100472.11;1692752;83;20122;-87
2022/03/04 08:27:59;;;;;;;;;;;;;;;6.65;77.98;100477.73;1726024;81;20140;-85
2022/03/04 08:30:25;;;;;;;;;;;;;;;6.60;77.41;100479.04;1747751;80;20111;-82
2022/03/04 08:32:50;;;;;;;;;;;;;;;6.39;77.96;100487.66;1745222;81;20188;-89
2022/03/04 08:35:16;;;;;;;;;;;;;;;6.55;77.74;100482.52;1737649;80;21146;-86
2022/03/04 08:37:42;;;;;;;;;;;;;;;6.55;77.63;100489.08;1740368;80;20541;-90
2022/03/04 08:40:10;;;;;;;;;;;;;;;6.54;77.68;100483.01;1744444;80;20398;-89
2022/03/04 08:42:38;;;;;;;;;;;;;;;6.19;79.03;100491.02;1745773;81;20186;-88
2022/03/04 08:45:05;;;;;;;;;;;;;;;6.15;80.03;100498.75;1734823;80;20164;-85
2022/03/04 08:47:30;;;;;;;;;;;;;;;5.98;80.65;100502.22;1750326;81;20974;-88
2022/03/04 08:49:56;;;;;;;;;;;;;;;6.09;79.77;100503.53;1741745;81;20157;-88
2022/03/04 08:52:21;;;;;;;;;;;;;;;6.06;79.99;100505.08;1745794;80;20716;-87
2022/03/04 08:54:47;;;;;;;;;;;;;;;6.21;79.84;100504.84;1742769;81;20144;-86
2022/03/04 08:57:12;;;;;;;;;;;;;;;6.23;79.78;100509.02;1741844;80;20137;-86
2022/03/04 08:59:38;;;;;;;;;;;;;;;6.17;79.84;100512.57;1746107;81;21166;-90
2022/03/04 09:02:04;;;;;;;;;;;;;;;6.23;79.40;100510.78;1743010;81;20207;-90
2022/03/04 09:04:30;;;;;;;;;;;;;;;6.16;79.69;100510.44;1750182;81;20299;-88
2022/03/04 09:06:56;;;;;;;;;;;;;;;6.20;79.89;100508.41;1743387;80;21160;-86
2022/03/04 09:09:21;;;;;;;;;;;;;;;6.01;81.28;100513.78;1750295;81;20176;-88
2022/03/04 09:11:47;;;;;;;;;;;;;;;6.02;81.50;100517.23;1743216;80;21077;-93
2022/03/04 09:14:12;;;;;;;;;;;;;;;5.88;82.88;100518.25;1731934;81;20156;-88
2022/03/04 09:16:38;;;;;;;;;;;;;;;6.13;81.79;100518.54;1742425;80;20537;-94
2022/03/04 09:19:04;;;;;;;;;;;;;;;6.33;80.97;100514.38;1741373;81;20448;-94
2022/03/04 09:21:29;;;;;;;;;;;;;;;6.11;81.44;100518.66;1747063;80;20173;-93
2022/03/04 09:23:55;;;;;;;;;;;;;;;6.20;81.46;100518.89;1741716;81;21075;-85
2022/03/04 09:26:20;;;;;;;;;;;;;;;6.39;80.71;100518.32;1737859;81;20138;-87
2022/03/04 09:28:47;;;;;;;;;;;;;;;6.34;80.83;100518.67;1737825;81;20204;-89
2022/03/04 09:31:13;;;;;;;;;;;;;;;6.36;81.07;100519.38;1742356;81;20163;-87
2022/03/04 09:33:38;;;;;;;;;;;;;;;6.26;81.75;100521.04;1714370;81;20174;-89
2022/03/04 09:36:05;;;;;;;;;;;;;;;6.25;81.42;100522.84;1742339;80;21371;-87
2022/03/04 09:38:31;;;;;;;;;;;;;;;6.34;81.28;100526.55;1736106;81;20192;-90
2022/03/04 09:40:57;;;;;;;;;;;;;;;6.34;81.08;100527.86;1740462;80;20973;-87
2022/03/04 09:43:23;;;;;;;;;;;;;;;6.27;81.10;100530.59;1718518;80;20652;-90
2022/03/04 09:45:49;;;;;;;;;;;;;;;6.26;80.92;100532.38;1743693;81;20515;-86
2022/03/04 09:48:16;;;;;;;;;;;;;;;6.14;81.22;100525.92;1742609;80;22084;-88
2022/03/04 09:50:44;;;;;;;;;;;;;;;6.17;80.76;100534.86;1736443;81;20164;-85
2022/03/04 09:53:11;;;;;;;;;;;;;;;6.16;81.34;100535.84;1742738;80;20136;-90
2022/03/04 09:55:40;;;;;;;;;;;;;;;6.17;80.82;100537.48;1742837;80;20485;-90
2022/03/04 09:58:11;;;;;;;;;;;;;;;5.92;81.49;100544.59;1739756;80;20204;-81
2022/03/04 10:00:38;;;;;;;;;;;;;;;6.08;81.35;100545.11;1739782;81;21039;-88
2022/03/04 10:03:04;;;;;;;;;;;;;;;6.04;81.09;100541.05;1744883;80;20124;-89
2022/03/04 10:05:30;;;;;;;;;;;;;;;6.02;80.99;100542.95;1738095;81;20256;-91
2022/03/04 10:07:55;;;;;;;;;;;;;;;5.89;81.90;100542.20;1735352;80;20164;-88
2022/03/04 10:10:22;;;;;;;;;;;;;;;5.77;82.21;100540.51;1745182;81;20186;-92
2022/03/04 10:12:55;;;;;;;;;;;;;;;5.80;81.91;100538.48;1742732;81;21175;-85
2022/03/04 10:15:21;;;;;;;;;;;;;;;5.91;81.33;100542.91;1745000;80;20128;-87
2022/03/04 10:18:02;;;;;;;;;;;;;;;5.82;81.58;100541.81;1735198;80;20164;-83
2022/03/04 10:20:37;;;;;;;;;;;;;;;6.09;80.84;100545.94;1748878;80;20269;-87
2022/03/04 10:23:15;;;;;;;;;;;;;;;5.97;80.80;100545.11;1732910;80;20300;-89
2022/03/04 10:25:46;;;;;;;;;;;;;;;5.80;81.41;100548.14;1744881;81;21113;-86
2022/03/04 10:28:12;;;;;;;;;;;;;;;5.89;81.37;100544.83;1750596;80;20125;-90
2022/03/04 10:30:44;;;;;;;;;;;;;;;5.94;81.41;100542.69;1757430;80;20260;-86
2022/03/04 10:33:16;;;;;;;;;;;;;;;5.79;82.37;100545.98;1757122;80;20198;-90
2022/03/04 10:35:42;;;;;;;;;;;;;;;5.77;83.14;100539.20;1756209;81;20250;-89
2022/03/04 10:38:20;;;;;;;;;;;;;;;5.84;83.19;100534.69;1755129;80;22085;-88
2022/03/04 10:40:48;;;;;;;;;;;;;;;5.91;83.06;100529.81;1752538;81;20643;-92
2022/03/04 10:43:22;;;;;;;;;;;;;;;6.08;82.65;100524.14;1752155;80;20158;-89
2022/03/04 10:45:44;;;;;;;;;;;;;;;6.07;83.01;100523.77;1754443;80;20180;-87
2022/03/04 10:48:17;;;;;;;;;;;;;;;6.16;82.67;100517.48;1757550;80;20288;-89
2022/03/04 10:50:50;;;;;;;;;;;;;;;6.15;82.81;100521.87;1756764;81;21323;-90
2022/03/04 10:53:19;;;;;;;;;;;;;;;6.17;82.00;100516.50;1752852;81;38254;-96
2022/03/04 10:55:49;;;;;;;;;;;;;;;6.25;82.42;100524.64;1753180;80;20301;-90
2022/03/04 10:58:24;;;;;;;;;;;;;;;6.31;82.12;100525.92;1759632;81;20135;-90
2022/03/04 11:00:56;;;;;;;;;;;;;;;6.26;82.52;100519.73;1757074;80;20149;-90
2022/03/04 11:03:23;;;;;;;;;;;;;;;6.34;83.12;100523.06;1762803;80;21004;-89
2022/03/04 11:05:51;;;;;;;;;;;;;;;6.39;82.78;100525.70;1756252;80;20162;-90
2022/03/04 11:08:17;;;;;;;;;;;;;;;6.35;82.49;100532.13;1759411;80;20109;-93
2022/03/04 11:10:42;;;;;;;;;;;;;;;6.33;82.36;100535.36;1752230;80;20505;-88
2022/03/04 11:13:10;;;;;;;;;;;;;;;6.42;82.10;100536.44;1754849;80;20140;-88
2022/03/04 11:15:35;;;;;;;;;;;;;;;6.41;82.66;100537.38;1755418;80;21088;-83
2022/03/04 11:18:06;;;;;;;;;;;;;;;6.47;81.82;100540.36;1754144;80;20226;-88
2022/03/04 11:20:31;;;;;;;;;;;;;;;6.47;81.65;100540.36;1758055;80;20182;-88
2022/03/04 11:22:57;;;;;;;;;;;;;;;6.54;82.16;100545.13;1747666;80;20168;-92
2022/03/04 11:25:23;;;;;;;;;;;;;;;6.63;82.51;100543.09;1748909;81;20251;-88
2022/03/04 11:27:51;;;;;;;;;;;;;;;6.82;82.00;100539.38;1753600;80;21161;-88
2022/03/04 11:30:41;;;;;;;;;;;;;;;6.91;81.32;100535.65;1707797;81;20186;-87
2022/03/04 11:33:24;;;;;;;;;;;;;;;7.04;80.52;100538.97;1722398;81;20109;-84
2022/03/04 11:36:04;;;;;;;;;;;;;;;7.30;79.79;100545.20;1722076;81;20085;-84
2022/03/04 11:38:53;;;;;;;;;;;;;;;7.37;78.72;100542.44;1711909;81;20204;-89
2022/03/04 11:41:31;;;;;;;;;;;;;;;7.41;78.12;100541.70;1711080;81;21192;-83
2022/03/04 11:43:58;;;;;;;;;;;;;;;7.55;76.88;100542.23;1715491;81;20129;-85
2022/03/04 11:46:48;;;;;;;;;;;;;;;7.70;76.15;100537.97;1705006;81;20218;-87
2022/03/04 11:49:27;;;;;;;;;;;;;;;7.59;74.82;100534.09;1724426;81;20196;-85
2022/03/04 11:52:19;;;;;;;;;;;;;;;7.81;74.67;100536.59;1719044;81;20326;-86
2022/03/04 11:54:44;;;;;;;;;;;;;;;7.86;74.90;100539.69;1700698;81;20176;-84
2022/03/04 11:57:29;;;;;;;;;;;;;;;7.94;74.78;100536.88;1712874;81;20194;-88
2022/03/04 11:59:59;;;;;;;;;;;;;;;8.14;74.02;100534.72;1714147;81;20148;-84
2022/03/04 12:02:29;;;;;;;;;;;;;;;8.01;72.59;100528.83;1712984;81;20752;-82
2022/03/04 12:05:17;;;;;;;;;;;;;;;8.17;72.94;100526.56;1724188;81;20209;-87
2022/03/04 12:07:43;;;;;;;;;;;;;;;8.22;72.60;100528.31;1710411;81;20148;-87
2022/03/04 12:10:15;;;;;;;;;;;;;;;8.25;73.01;100525.91;1722714;81;20190;-82
2022/03/04 12:12:42;;;;;;;;;;;;;;;8.34;73.49;100520.32;1721319;81;20146;-90
2022/03/04 12:15:21;;;;;;;;;;;;;;;8.37;70.57;100517.42;1709780;81;20147;-86
2022/03/04 12:17:59;;;;;;;;;;;;;;;8.47;71.26;100514.39;1715728;81;20177;-88
2022/03/04 12:20:29;;;;;;;;;;;;;;;8.69;71.29;100512.52;1713609;81;21174;-88
2022/03/04 12:22:58;;;;;;;;;;;;;;;8.51;70.25;100504.41;1706146;81;20957;-86
2022/03/04 12:25:53;;;;;;;;;;;;;;;8.52;70.34;100512.18;1731399;81;20331;-88
2022/03/04 12:28:35;;;;;;;;;;;;;;;8.63;69.62;100511.23;1724150;80;20149;-85
2022/03/04 12:31:05;;;;;;;;;;;;;;;8.29;70.64;100515.95;1754538;80;20199;-87
2022/03/04 12:33:37;;;;;;;;;;;;;;;8.14;71.17;100522.89;1766963;79;21165;-84
2022/03/04 12:36:04;;;;;;;;;;;;;;;8.12;71.45;100522.66;1744271;80;20145;-86
2022/03/04 12:38:33;;;;;;;;;;;;;;;8.11;71.26;100524.46;1746095;80;20203;-88
2022/03/04 12:40:59;;;;;;;;;;;;;;;8.14;70.62;100525.98;1736846;80;20191;-88
2022/03/04 12:43:25;;;;;;;;;;;;;;;8.04;70.59;100529.88;1735498;80;21186;-89
2022/03/04 12:45:51;;;;;;;;;;;;;;;7.86;71.09;100527.85;1747100;80;22710;-87
2022/03/04 12:48:17;;;;;;;;;;;;;;;7.66;72.28;100529.52;1748367;80;20128;-89